Time;durP1;ratioP1;P1;durP2;ratioP2;P2;SDS_P1;SDS_P2;PMS_P1;PMS_P2;Temp;Humidity;BMP_temperature;BMP_pressure;BME280_temperature;BME280_humidity;BME280_pressure;Samples;Min_cycle;Max_cycle;Signal;HPM_P1;HPM_P2
2021/12/22 00:00:40;;;;;;;10.02;4.60;;;-1.30;99.90;;;-1.80;82.56;102055.72;5144392;28;20476;-74
2021/12/22 00:03:12;;;;;;;10.32;4.63;;;-1.30;99.90;;;-1.80;82.66;102062.47;5143446;28;20050;-73
2021/12/22 00:05:47;;;;;;;9.48;3.58;;;-1.30;99.90;;;-1.83;82.94;102051.91;5143246;28;20062;-76
2021/12/22 00:08:19;;;;;;;9.18;3.83;;;-1.40;99.90;;;-1.82;82.73;102057.22;5143523;28;20089;-73
2021/12/22 00:10:51;;;;;;;9.68;4.43;;;-1.30;99.90;;;-1.79;83.25;102056.63;5143589;28;20747;-73
2021/12/22 00:13:24;;;;;;;8.20;3.58;;;-1.40;99.90;;;-1.78;83.90;102053.31;5143656;28;20074;-73
2021/12/22 00:15:56;;;;;;;5.55;3.08;;;-1.30;99.90;;;-1.72;84.31;102041.16;5142934;28;20054;-74
2021/12/22 00:18:28;;;;;;;8.00;3.08;;;-1.20;99.90;;;-1.65;84.26;102046.16;5143077;28;20080;-73
2021/12/22 00:21:01;;;;;;;10.82;3.80;;;-1.20;99.90;;;-1.62;84.44;102046.50;5143287;28;20051;-73
2021/12/22 00:23:33;;;;;;;9.85;3.65;;;-1.10;99.90;;;-1.57;84.49;102029.94;5143033;28;20059;-73
2021/12/22 00:26:05;;;;;;;8.00;3.33;;;-1.10;99.90;;;-1.54;84.26;102035.38;5142771;28;20526;-73
2021/12/22 00:28:40;;;;;;;6.85;3.78;;;-1.10;99.90;;;-1.51;84.12;102033.13;5143129;28;20051;-74
2021/12/22 00:31:14;;;;;;;10.32;4.25;;;-1.10;99.90;;;-1.50;83.97;102024.75;5248867;23;20043;-67
2021/12/22 00:33:48;;;;;;;9.80;4.03;;;-1.00;99.90;;;-1.49;84.00;102029.09;5145179;28;20050;-66
2021/12/22 00:36:24;;;;;;;8.82;3.65;;;-1.00;99.90;;;-1.48;84.23;102030.91;5132663;28;20055;-66
2021/12/22 00:38:56;;;;;;;12.27;4.32;;;-1.00;99.90;;;-1.43;84.59;102033.94;5145328;28;20480;-66
2021/12/22 00:41:28;;;;;;;6.38;2.65;;;-1.00;99.90;;;-1.43;84.44;102024.59;5145059;28;20182;-66
2021/12/22 00:44:01;;;;;;;8.88;3.53;;;-1.00;99.90;;;-1.41;84.21;102022.19;5143510;28;20046;-66
2021/12/22 00:46:33;;;;;;;9.23;3.30;;;-1.00;99.90;;;-1.40;83.99;102030.03;5144249;28;20419;-66
2021/12/22 00:49:05;;;;;;;7.45;3.65;;;-0.90;99.90;;;-1.39;84.35;102021.59;5143854;28;20407;-66
2021/12/22 00:51:37;;;;;;;8.43;3.55;;;-0.90;99.90;;;-1.37;84.38;102020.13;5144050;28;20053;-66
2021/12/22 00:54:09;;;;;;;8.20;4.18;;;-0.90;99.90;;;-1.35;84.60;102019.38;5143474;28;20051;-66
2021/12/22 00:56:41;;;;;;;12.90;4.10;;;-0.90;99.90;;;-1.34;84.66;102021.16;5143825;28;20137;-68
2021/12/22 00:59:17;;;;;;;8.50;3.70;;;-0.90;99.90;;;-1.33;84.34;102022.97;5144250;28;20072;-67
2021/12/22 01:01:49;;;;;;;7.75;3.50;;;-0.80;99.90;;;-1.39;84.59;102010.47;5143988;28;20150;-67
2021/12/22 01:04:21;;;;;;;13.68;4.22;;;-0.80;99.90;;;-1.36;84.70;102015.91;5143369;28;20389;-66
2021/12/22 01:06:53;;;;;;;9.10;4.10;;;-0.80;99.90;;;-1.35;84.44;102011.69;5144219;28;20067;-67
2021/12/22 01:09:25;;;;;;;7.47;3.95;;;-0.80;99.90;;;-1.32;84.77;102015.44;5144002;28;20571;-66
2021/12/22 01:11:59;;;;;;;7.75;4.35;;;-0.80;99.90;;;-1.32;84.58;102018.00;5143224;28;20059;-66
2021/12/22 01:14:32;;;;;;;7.05;3.28;;;-0.80;99.90;;;-1.32;84.53;102011.97;5143804;28;20735;-66
2021/12/22 01:17:06;;;;;;;8.40;3.80;;;-0.80;99.90;;;-1.30;84.46;102026.75;5132480;28;20051;-67
2021/12/22 01:19:46;;;;;;;10.52;3.67;;;-0.80;99.90;;;-1.29;84.43;102022.53;5124162;28;20051;-67
2021/12/22 01:22:26;;;;;;;7.13;4.03;;;-0.80;99.90;;;-1.31;84.52;102024.03;5122293;28;20058;-67
2021/12/22 01:25:03;;;;;;;8.07;3.80;;;-0.80;99.90;;;-1.34;84.24;102023.72;5123436;29;20086;-67
2021/12/22 01:27:41;;;;;;;10.57;4.00;;;-0.80;99.90;;;-1.37;84.74;102021.75;5138094;28;20050;-67
2021/12/22 01:30:19;;;;;;;11.48;4.70;;;-0.80;99.90;;;-1.40;85.14;102022.34;5143224;28;20054;-67
2021/12/22 01:32:54;;;;;;;8.70;3.55;;;-0.80;99.90;;;-1.36;85.42;102026.13;5142915;28;20054;-67
2021/12/22 01:35:31;;;;;;;10.90;3.22;;;-0.80;99.90;;;-1.39;84.90;102020.69;5143249;28;20256;-67
2021/12/22 01:38:04;;;;;;;9.15;3.85;;;-0.80;99.90;;;-1.32;84.61;102035.91;5143507;28;20503;-67
2021/12/22 01:40:40;;;;;;;12.93;3.85;;;-0.80;99.90;;;-1.33;84.38;102041.78;5140897;28;20496;-67
2021/12/22 01:43:14;;;;;;;10.88;5.47;;;-0.80;99.90;;;-1.35;84.23;102042.38;5142379;28;20506;-67
2021/12/22 01:46:07;;;;;;;8.05;3.63;;;-0.80;99.90;;;-1.39;84.11;102038.59;5141737;28;20579;-67
2021/12/22 01:51:41;;;;;;;14.38;3.67;;;-0.90;99.90;;;-1.51;83.47;102035.69;5123109;28;20065;-67
2021/12/22 01:54:28;;;;;;;9.13;4.15;;;-1.00;99.90;;;-1.56;83.59;102036.91;5122765;28;20050;-68
2021/12/22 01:57:06;;;;;;;10.05;3.42;;;-1.00;99.90;;;-1.59;83.77;102041.69;5123448;28;20053;-67
2021/12/22 01:59:41;;;;;;;10.25;3.80;;;-1.10;99.90;;;-1.64;83.69;102048.88;5123489;28;20043;-67
2021/12/22 02:02:16;;;;;;;9.63;3.33;;;-1.10;99.90;;;-1.68;83.73;102046.75;5123658;28;20054;-67
2021/12/22 02:04:48;;;;;;;9.95;4.25;;;-1.20;99.90;;;-1.71;83.65;102050.63;5139139;28;20065;-67
2021/12/22 02:07:20;;;;;;;9.25;4.45;;;-1.20;99.90;;;-1.73;83.65;102044.47;5142512;28;20072;-67
2021/12/22 02:12:45;;;;;;;12.73;4.43;;;-1.20;99.90;;;-1.80;83.58;102055.72;5142205;28;20055;-67
2021/12/22 02:15:17;;;;;;;7.72;3.40;;;-1.30;99.90;;;-1.82;83.51;102057.22;5142593;28;20047;-67
2021/12/22 02:17:55;;;;;;;7.43;3.10;;;-1.30;99.90;;;-1.88;83.33;102063.34;5143428;28;20106;-66
2021/12/22 02:20:29;;;;;;;8.38;4.10;;;-1.40;99.90;;;-1.89;83.47;102071.72;5143962;28;20511;-66
2021/12/22 02:23:01;;;;;;;6.78;3.13;;;-1.40;99.90;;;-1.93;83.44;102076.53;5147100;28;20482;-67
2021/12/22 02:25:38;;;;;;;11.23;4.03;;;-1.40;99.90;;;-1.96;83.50;102077.84;5146677;28;20479;-67
2021/12/22 02:28:17;;;;;;;8.45;3.67;;;-1.50;99.90;;;-2.00;83.56;102068.97;5147329;28;20542;-66
2021/12/22 02:30:50;;;;;;;8.93;3.33;;;-1.50;99.90;;;-2.03;83.68;102066.09;5147024;28;20054;-66
2021/12/22 02:33:25;;;;;;;10.20;3.83;;;-1.50;99.90;;;-2.07;83.95;102063.97;5146844;28;20464;-66
2021/12/22 02:36:21;;;;;;;7.32;3.22;;;-1.50;99.90;;;-2.04;84.09;102063.38;5146494;28;20046;-67
2021/12/22 02:38:56;;;;;;;9.75;4.15;;;-1.50;99.90;;;-2.05;83.88;102070.13;5147010;28;20507;-66
2021/12/22 02:41:31;;;;;;;8.90;4.78;;;-1.50;99.90;;;-2.08;83.79;102069.84;5146668;28;20182;-66
2021/12/22 02:44:03;;;;;;;10.10;3.35;;;-1.50;99.90;;;-2.10;83.63;102067.84;5146341;28;20105;-66
2021/12/22 02:46:38;;;;;;;12.55;4.25;;;-1.60;99.90;;;-2.13;83.83;102057.31;5146791;28;20364;-66
2021/12/22 02:49:10;;;;;;;9.30;3.63;;;-1.60;99.90;;;-2.13;84.39;102055.66;5146805;28;20515;-66
2021/12/22 02:51:44;;;;;;;8.73;3.33;;;-1.60;99.90;;;-2.10;84.37;102055.97;5146611;28;20415;-67
2021/12/22 02:54:19;;;;;;;6.88;4.22;;;-1.60;99.90;;;-2.10;84.23;102068.75;5145912;28;20053;-66
2021/12/22 02:56:57;;;;;;;7.50;3.60;;;-1.60;99.90;;;-2.11;84.23;102056.72;5146487;28;20061;-66
2021/12/22 03:02:28;;;;;;;10.65;4.63;;;-1.60;99.90;;;-2.16;83.80;102044.19;5146021;28;20055;-66
2021/12/22 03:05:00;;;;;;;;;;;-1.60;99.90;;;-2.23;84.39;102040.09;5146290;28;20051;-67
2021/12/22 03:07:33;;;;;;;7.95;3.85;;;-1.70;99.90;;;-2.23;84.71;102041.00;5146280;28;19922;-66
2021/12/22 03:10:12;;;;;;;5.35;3.15;;;-1.70;99.90;;;-2.20;84.77;102038.78;5146233;28;20139;-67
2021/12/22 03:12:45;;;;;;;7.68;3.75;;;-1.60;99.90;;;-2.17;84.72;102056.06;5145879;28;20058;-66
2021/12/22 03:15:17;;;;;;;5.55;2.97;;;-1.60;99.90;;;-2.17;84.21;102039.84;5146009;28;20059;-66
2021/12/22 03:17:51;;;;;;;7.97;3.95;;;-1.60;99.90;;;-2.21;84.23;102041.19;5146296;28;20149;-66
2021/12/22 03:20:24;;;;;;;6.82;3.67;;;-1.70;99.90;;;-2.25;83.86;102026.25;5146221;28;20139;-67
2021/12/22 03:22:58;;;;;;;10.60;3.13;;;-1.70;99.90;;;-2.24;84.15;102036.63;5146109;28;20546;-67
2021/12/22 03:25:30;;;;;;;7.50;3.40;;;-1.70;99.90;;;-2.28;83.93;102026.88;5145351;28;20050;-67
2021/12/22 03:28:03;;;;;;;10.73;3.90;;;-1.70;99.90;;;-2.32;83.74;102028.94;5146210;28;20186;-67
2021/12/22 03:30:35;;;;;;;7.22;2.75;;;-1.80;99.90;;;-2.35;83.72;102026.94;5146005;28;20496;-67
2021/12/22 03:33:08;;;;;;;8.32;4.18;;;-1.80;99.90;;;-2.35;83.82;102018.38;5145552;28;20046;-67
2021/12/22 03:35:39;;;;;;;9.52;3.70;;;-1.80;99.90;;;-2.36;83.89;102014.00;5145227;28;20061;-67
2021/12/22 03:38:13;;;;;;;8.05;3.85;;;-1.90;99.90;;;-2.36;83.99;102011.44;5145878;28;20137;-67
2021/12/22 03:40:45;;;;;;;9.90;4.20;;;-1.80;99.90;;;-2.35;83.85;102014.16;5145839;28;20047;-67
2021/12/22 03:43:17;;;;;;;5.53;2.95;;;-1.80;99.90;;;-2.35;83.92;102015.81;5145765;28;20046;-67
2021/12/22 03:45:49;;;;;;;8.52;3.67;;;-1.90;99.90;;;-2.38;83.65;102018.97;5145050;28;20053;-67
2021/12/22 03:48:22;;;;;;;5.93;3.25;;;-1.90;99.90;;;-2.40;83.81;102023.00;5145270;28;20518;-67
2021/12/22 03:50:54;;;;;;;7.90;3.00;;;-1.90;99.90;;;-2.41;83.63;102022.81;5145834;28;20416;-67
2021/12/22 03:53:28;;;;;;;8.73;2.70;;;-1.90;99.90;;;-2.42;83.75;102019.38;5145585;28;20417;-67
2021/12/22 03:56:00;;;;;;;7.35;3.42;;;-1.90;99.90;;;-2.41;83.97;102018.66;5145020;28;20055;-67
2021/12/22 03:58:32;;;;;;;6.75;3.17;;;-1.90;99.90;;;-2.37;84.21;102017.31;5145406;28;20053;-67
2021/12/22 04:01:04;;;;;;;8.23;3.78;;;-1.90;99.90;;;-2.33;84.50;102025.47;5145528;28;20500;-67
2021/12/22 04:03:38;;;;;;;8.48;3.33;;;-1.80;99.90;;;-2.28;84.77;102020.84;5145307;28;20411;-67
2021/12/22 04:06:10;;;;;;;8.18;3.38;;;-1.80;99.90;;;-2.26;85.27;102021.91;5144774;28;20051;-67
2021/12/22 04:08:44;;;;;;;10.02;3.53;;;-1.70;99.90;;;-2.20;85.15;102014.88;5145244;28;20069;-68
2021/12/22 04:11:16;;;;;;;6.40;3.10;;;-1.70;99.90;;;-2.20;85.58;102009.78;5144912;28;20419;-67
2021/12/22 04:13:48;;;;;;;7.65;3.90;;;-1.60;99.90;;;-2.21;85.92;102018.19;5144655;28;20051;-67
2021/12/22 04:16:21;;;;;;;6.40;3.20;;;-1.60;99.90;;;-2.17;86.19;102010.09;5144881;28;20047;-67
2021/12/22 04:18:53;;;;;;;6.75;3.72;;;-1.60;99.90;;;-2.10;86.08;102011.63;5144976;28;20057;-67
2021/12/22 04:21:25;;;;;;;11.38;5.13;;;-1.50;99.90;;;-2.05;85.85;102019.03;5144654;28;20061;-67
2021/12/22 04:24:00;;;;;;;14.60;4.18;;;-1.50;99.90;;;-2.00;85.72;102020.41;5144295;28;20051;-67
2021/12/22 04:26:32;;;;;;;9.25;4.32;;;-1.40;99.90;;;-1.99;85.53;102017.13;5145004;28;20089;-67
2021/12/22 04:29:04;;;;;;;10.63;4.03;;;-1.40;99.90;;;-1.98;85.28;102008.69;5144886;28;20555;-67
2021/12/22 04:31:36;;;;;;;5.85;2.65;;;-1.50;99.90;;;-1.99;84.87;102017.13;5144646;28;20051;-67
2021/12/22 04:34:08;;;;;;;6.88;3.45;;;-1.50;99.90;;;-2.01;84.86;102023.72;5144116;28;20051;-67
2021/12/22 04:36:41;;;;;;;9.40;3.53;;;-1.50;99.90;;;-2.04;84.50;102023.38;5144930;28;20113;-67
2021/12/22 04:39:15;;;;;;;8.25;2.83;;;-1.50;99.90;;;-2.07;84.63;102028.19;5144893;28;20047;-67
2021/12/22 04:41:48;;;;;;;6.18;2.65;;;-1.50;99.90;;;-2.09;84.52;102029.66;5144796;28;20051;-65
2021/12/22 04:44:20;;;;;;;7.07;3.35;;;-1.60;99.90;;;-2.11;84.49;102041.38;5143473;28;20436;-65
2021/12/22 04:46:52;;;;;;;4.93;2.88;;;-1.60;99.90;;;-2.12;84.41;102043.78;5144332;28;20047;-66
2021/12/22 04:49:24;;;;;;;8.77;3.15;;;-1.60;99.90;;;-2.15;84.48;102039.28;5144531;28;20057;-66
2021/12/22 04:51:58;;;;;;;9.13;3.85;;;-1.60;99.90;;;-2.15;84.58;102038.34;5144413;28;20050;-68
2021/12/22 04:54:41;;;;;;;8.77;3.15;;;-1.60;99.90;;;-2.15;84.68;102044.38;5143818;28;20055;-67
2021/12/22 04:57:13;;;;;;;9.48;3.33;;;-1.60;99.90;;;-2.15;85.12;102039.28;5144278;28;20145;-67
2021/12/22 04:59:45;;;;;;;13.55;3.60;;;-1.60;99.90;;;-2.09;85.62;102032.22;5144562;28;20118;-67
2021/12/22 05:02:17;;;;;;;10.30;3.35;;;-1.60;99.90;;;-2.03;85.87;102031.97;5144349;28;20500;-67
2021/12/22 05:04:49;;;;;;;7.60;3.22;;;-1.50;99.90;;;-1.99;85.75;102042.66;5143681;28;20050;-67
2021/12/22 05:07:21;;;;;;;9.38;3.60;;;-1.50;99.90;;;-1.95;85.70;102033.69;5144030;28;20051;-67
2021/12/22 05:09:55;;;;;;;5.97;2.78;;;-1.50;99.90;;;-1.96;85.43;102037.91;5144364;28;20046;-67
2021/12/22 05:12:27;;;;;;;9.85;4.75;;;-1.40;99.90;;;-1.95;85.30;102039.69;5144359;28;20053;-67
2021/12/22 05:14:59;;;;;;;12.52;3.50;;;-1.50;99.90;;;-1.93;85.59;102032.19;5143692;28;20051;-67
2021/12/22 05:18:00;;;;;;;8.40;3.65;;;-1.40;99.90;;;-1.88;85.84;102035.22;5144121;28;20057;-67
2021/12/22 05:20:30;;;;;;;8.13;3.10;;;-1.40;99.90;;;-1.83;85.67;102034.03;5144023;28;20102;-67
2021/12/22 05:23:02;;;;;;;8.70;2.92;;;-1.40;99.90;;;-1.82;85.47;102040.97;5143957;28;20057;-67
2021/12/22 05:25:36;;;;;;;8.55;3.17;;;-1.30;99.90;;;-1.83;85.20;102029.81;5143577;28;20046;-67
2021/12/22 05:28:08;;;;;;;10.98;5.15;;;-1.30;99.90;;;-1.84;85.17;102037.34;5143970;28;20053;-67
2021/12/22 05:30:40;;;;;;;13.20;6.10;;;-1.40;99.90;;;-1.86;85.13;102029.50;5143929;28;20442;-67
2021/12/22 05:33:12;;;;;;;8.70;3.80;;;-1.40;99.90;;;-1.89;85.04;102044.56;5143772;28;20055;-67
2021/12/22 05:35:44;;;;;;;7.55;4.30;;;-1.40;99.90;;;-1.88;85.20;102035.22;5143363;28;20047;-67
2021/12/22 05:38:17;;;;;;;11.07;3.80;;;-1.40;99.90;;;-1.87;85.59;102027.72;5143974;28;20055;-67
2021/12/22 05:40:50;;;;;;;10.25;5.45;;;-1.30;99.90;;;-1.84;85.78;102032.22;5143788;28;20051;-67
2021/12/22 05:43:22;;;;;;;7.35;3.25;;;-1.30;99.90;;;-1.82;85.53;102035.88;5143824;28;20047;-67
2021/12/22 05:45:54;;;;;;;10.07;2.72;;;-1.30;99.90;;;-1.82;85.23;102030.75;5143211;28;20047;-67
2021/12/22 05:48:26;;;;;;;8.38;3.03;;;-1.30;99.90;;;-1.89;85.05;102028.28;5143867;28;20051;-67
2021/12/22 05:51:00;;;;;;;6.70;2.65;;;-1.40;99.90;;;-1.88;84.86;102020.78;5143787;28;20050;-67
2021/12/22 05:53:32;;;;;;;6.93;3.22;;;-1.30;99.90;;;-1.89;85.11;102025.72;5143699;28;20412;-67
2021/12/22 05:56:06;;;;;;;8.45;3.28;;;-1.40;99.90;;;-1.88;85.05;102025.00;5146544;28;20389;-67
2021/12/22 05:58:38;;;;;;;7.88;3.70;;;-1.40;99.90;;;-1.88;85.15;102019.91;5146949;28;20057;-67
2021/12/22 06:01:10;;;;;;;9.38;3.42;;;-1.40;99.90;;;-1.91;84.89;102016.25;5147400;28;20051;-68
2021/12/22 06:03:42;;;;;;;5.78;4.28;;;-1.40;99.90;;;-1.92;84.95;102017.00;5147408;28;20055;-67
2021/12/22 06:06:14;;;;;;;7.55;2.88;;;-1.40;99.90;;;-1.92;84.95;102011.88;5147304;28;20054;-68
2021/12/22 06:08:46;;;;;;;7.47;3.17;;;-1.40;99.90;;;-1.93;85.04;102011.75;5147749;28;20431;-67
2021/12/22 06:11:20;;;;;;;7.00;3.55;;;-1.40;99.90;;;-1.95;84.82;102009.03;5147670;28;20051;-67
2021/12/22 06:13:52;;;;;;;8.60;3.33;;;-1.50;99.90;;;-1.99;84.51;102008.53;5146728;28;20412;-67
2021/12/22 06:16:24;;;;;;;7.05;3.22;;;-1.50;99.90;;;-2.02;84.37;102005.66;5147459;28;20043;-67
2021/12/22 06:18:58;;;;;;;5.80;3.50;;;-1.50;99.90;;;-2.08;83.99;102005.94;5147364;28;20046;-67
2021/12/22 06:21:31;;;;;;;9.20;3.67;;;-1.60;99.90;;;-2.14;84.03;102005.31;5147501;28;20133;-67
2021/12/22 06:24:04;;;;;;;7.63;3.30;;;-1.60;99.90;;;-2.18;83.96;102003.16;5146701;28;20062;-67
2021/12/22 06:26:38;;;;;;;8.10;3.45;;;-1.70;99.90;;;-2.23;83.86;102014.53;5147097;28;20413;-67
2021/12/22 06:29:10;;;;;;;7.57;3.15;;;-1.70;99.90;;;-2.28;83.80;102015.75;5147284;28;20050;-67
2021/12/22 06:31:42;;;;;;;7.47;3.10;;;-1.80;99.90;;;-2.33;83.71;102016.91;5243323;23;20053;-75
2021/12/22 06:34:14;;;;;;;9.05;3.83;;;-1.80;99.90;;;-2.34;83.77;102022.75;5174231;28;20129;-74
2021/12/22 06:36:46;;;;;;;6.05;2.65;;;-1.80;99.90;;;-2.37;83.64;102014.75;5167820;28;20042;-74
2021/12/22 06:39:18;;;;;;;8.75;3.30;;;-1.90;99.90;;;-2.40;83.70;102029.78;5168129;28;20053;-74
2021/12/22 06:41:52;;;;;;;7.57;3.95;;;-1.90;99.90;;;-2.40;83.72;102024.66;5168287;28;20050;-72
2021/12/22 06:44:24;;;;;;;9.30;3.65;;;-1.90;99.90;;;-2.43;83.55;102026.88;5166973;28;20050;-72
2021/12/22 06:46:56;;;;;;;8.45;3.25;;;-1.90;99.90;;;-2.46;83.58;102023.28;5167275;28;20503;-75
2021/12/22 06:49:28;;;;;;;8.35;3.13;;;-1.90;99.90;;;-2.46;83.67;102020.72;5166907;28;20054;-75
2021/12/22 06:52:00;;;;;;;8.32;3.03;;;-2.00;99.90;;;-2.44;84.00;102013.22;5167017;28;20057;-75
2021/12/22 06:54:32;;;;;;;8.88;3.30;;;-1.90;99.90;;;-2.44;84.12;102018.31;5168068;28;20050;-71
2021/12/22 06:57:05;;;;;;;15.35;4.07;;;-1.90;99.90;;;-2.43;84.10;102020.13;5166858;28;20046;-71
2021/12/22 06:59:37;;;;;;;7.75;3.72;;;-1.90;99.90;;;-2.42;84.15;102011.72;5166794;28;20050;-71
2021/12/22 07:02:09;;;;;;;7.78;4.65;;;-1.90;99.90;;;-2.41;84.35;102004.94;5166825;28;20046;-71
2021/12/22 07:04:41;;;;;;;7.30;3.85;;;-1.90;99.90;;;-2.41;84.22;102015.16;5165801;28;20046;-71
2021/12/22 07:07:13;;;;;;;6.40;2.92;;;-1.90;99.90;;;-2.42;84.35;102010.81;5165618;28;20047;-71
2021/12/22 07:09:48;;;;;;;9.20;4.35;;;-1.90;99.90;;;-2.42;84.37;102019.38;5166447;28;20065;-71
2021/12/22 07:12:21;;;;;;;9.15;4.10;;;-1.90;99.90;;;-2.42;84.32;102018.47;5166792;28;20546;-75
2021/12/22 07:14:53;;;;;;;8.20;3.75;;;-1.90;99.90;;;-2.42;84.23;102019.38;5167110;28;20050;-74
2021/12/22 07:17:25;;;;;;;8.82;3.80;;;-1.90;99.90;;;-2.42;84.19;102016.81;5166288;28;20042;-71
2021/12/22 07:19:57;;;;;;;5.25;3.38;;;-1.90;99.90;;;-2.41;84.04;102017.72;5166113;28;20062;-71
2021/12/22 07:22:29;;;;;;;8.18;3.25;;;-1.90;99.90;;;-2.41;84.09;102012.59;5166564;28;20384;-70
2021/12/22 07:25:01;;;;;;;9.65;4.05;;;-1.90;99.90;;;-2.39;83.99;102011.16;5165574;28;20057;-70
2021/12/22 07:27:35;;;;;;;8.15;3.50;;;-1.90;99.90;;;-2.40;84.06;102010.25;5165870;28;20388;-70
2021/12/22 07:30:09;;;;;;;8.27;4.65;;;-1.90;99.90;;;-2.38;84.14;102007.84;5166087;28;20050;-70
2021/12/22 07:32:41;;;;;;;8.30;3.90;;;-1.90;99.90;;;-2.36;84.31;102014.00;5167041;28;20244;-70
2021/12/22 07:35:20;;;;;;;11.13;4.38;;;-1.80;99.90;;;-2.36;84.11;102016.56;5165718;28;20057;-70
2021/12/22 07:38:03;;;;;;;9.60;3.78;;;-1.90;99.90;;;-2.34;84.13;102010.88;5166318;28;20062;-69
2021/12/22 07:40:36;;;;;;;9.55;4.03;;;-1.80;99.90;;;-2.29;84.38;102007.13;5165821;28;20046;-68
2021/12/22 07:43:09;;;;;;;11.60;4.53;;;-1.80;99.90;;;-2.24;84.41;101997.41;5165580;28;20058;-69
2021/12/22 07:45:41;;;;;;;8.50;3.97;;;-1.80;99.90;;;-2.17;84.64;102001.50;5165397;28;20046;-69
2021/12/22 07:48:13;;;;;;;17.75;6.90;;;-1.70;99.90;;;-2.13;85.08;102002.00;5165960;28;20402;-69
2021/12/22 07:50:46;;;;;;;14.80;6.82;;;-1.70;99.90;;;-2.04;85.29;102005.50;5165791;28;20407;-69
2021/12/22 07:53:17;;;;;;;13.32;5.47;;;-1.60;99.90;;;-1.93;85.13;102004.06;5165870;28;20050;-69
2021/12/22 07:55:53;;;;;;;12.65;5.78;;;-1.50;99.90;;;-1.86;84.71;102008.16;5165562;28;20046;-69
2021/12/22 07:58:27;;;;;;;12.10;5.15;;;-1.40;99.90;;;-1.83;84.38;102008.47;5165485;28;20057;-69
2021/12/22 08:01:00;;;;;;;31.75;13.63;;;-1.40;99.90;;;-1.81;84.38;102007.00;5165560;28;20057;-70
2021/12/22 08:03:32;;;;;;;19.88;7.50;;;-1.40;99.90;;;-1.77;84.37;101998.88;5164946;28;20052;-70
2021/12/22 08:06:04;;;;;;;18.52;7.38;;;-1.30;99.90;;;-1.75;84.26;101997.41;5164386;28;20077;-70
2021/12/22 08:08:36;;;;;;;14.48;5.75;;;-1.30;99.90;;;-1.72;84.10;102001.16;5170750;28;20046;-70
2021/12/22 08:11:09;;;;;;;17.23;5.22;;;-1.30;99.90;;;-1.64;84.00;102001.94;5184889;28;20052;-70
2021/12/22 08:13:42;;;;;;;11.57;4.97;;;-1.20;99.90;;;-1.58;84.02;102006.78;5184293;28;20068;-70
2021/12/22 08:16:14;;;;;;;15.13;4.70;;;-1.20;99.90;;;-1.53;84.21;102009.06;5183629;28;20129;-70
2021/12/22 08:18:46;;;;;;;15.90;5.25;;;-1.10;99.90;;;-1.47;84.10;102007.13;5183305;28;20050;-70
2021/12/22 08:21:18;;;;;;;16.15;6.00;;;-1.10;99.90;;;-1.44;83.90;102012.53;5183796;28;20058;-70
2021/12/22 08:23:50;;;;;;;15.82;5.97;;;-1.00;99.90;;;-1.37;83.85;102012.44;5184524;28;20049;-70
2021/12/22 08:26:22;;;;;;;18.33;5.68;;;-1.00;99.90;;;-1.30;83.94;102010.50;5184915;28;20052;-70
2021/12/22 08:28:56;;;;;;;13.15;5.95;;;-0.90;99.90;;;-1.25;83.60;102010.19;5185476;28;20072;-70
2021/12/22 08:31:27;;;;;;;14.75;5.25;;;-0.90;99.90;;;-1.18;83.69;102004.94;5184988;28;20053;-70
2021/12/22 08:34:00;;;;;;;14.45;4.82;;;-0.80;99.90;;;-1.12;83.42;102009.78;5184480;28;20046;-70
2021/12/22 08:39:22;;;;;;;14.65;6.38;;;-0.70;99.90;;;-1.03;83.62;102008.16;5185059;28;20108;-70
2021/12/22 08:41:54;;;;;;;10.95;5.78;;;-0.60;99.90;;;-0.97;83.51;102008.78;5184622;28;20042;-70
2021/12/22 08:44:28;;;;;;;15.23;5.88;;;-0.60;99.90;;;-0.90;83.69;102000.03;5184157;28;20052;-70
2021/12/22 08:47:01;;;;;;;17.15;6.60;;;-0.50;99.90;;;-0.84;83.60;101996.44;5184982;28;20398;-70
2021/12/22 08:49:33;;;;;;;12.02;4.32;;;-0.50;99.90;;;-0.84;82.96;101992.97;5185236;28;20060;-70
2021/12/22 08:52:06;;;;;;;12.60;5.88;;;-0.40;99.90;;;-0.81;82.80;101995.81;5184863;28;20053;-70
2021/12/22 08:54:39;;;;;;;12.82;4.82;;;-0.40;99.90;;;-0.79;83.38;101988.28;5183980;28;20049;-70
2021/12/22 08:57:11;;;;;;;12.27;4.72;;;-0.30;99.90;;;-0.74;83.28;101994.78;5184297;28;20056;-70
2021/12/22 08:59:44;;;;;;;16.25;5.68;;;-0.30;99.90;;;-0.65;83.51;101995.69;5184872;28;20049;-70
2021/12/22 09:02:16;;;;;;;9.63;4.55;;;-0.20;99.90;;;-0.58;83.22;102001.56;5184899;28;20384;-72
2021/12/22 09:04:48;;;;;;;12.20;4.43;;;-0.20;99.90;;;-0.53;83.01;102014.81;5183840;28;20107;-70
2021/12/22 09:07:29;;;;;;;11.25;4.97;;;-0.10;99.90;;;-0.50;82.96;102007.44;5184835;28;20071;-70
2021/12/22 09:10:01;;;;;;;11.35;4.38;;;0.00;99.90;;;-0.47;83.37;102004.25;5184835;28;20509;-69
2021/12/22 09:12:33;;;;;;;10.75;4.88;;;0.00;99.90;;;-0.47;82.80;101994.91;5184933;28;20487;-69
2021/12/22 09:15:08;;;;;;;8.05;3.72;;;0.00;99.90;;;-0.37;83.10;101992.50;5184316;28;20057;-69
2021/12/22 09:17:40;;;;;;;13.20;4.68;;;0.10;99.90;;;-0.32;82.48;101991.31;5184969;28;20407;-69
2021/12/22 09:20:13;;;;;;;15.85;4.80;;;0.10;99.90;;;-0.29;82.81;101989.00;5184847;28;20056;-70
2021/12/22 09:22:45;;;;;;;17.92;5.57;;;0.20;99.90;;;-0.20;82.21;101990.66;5184296;28;20054;-70
2021/12/22 09:25:17;;;;;;;9.30;5.45;;;0.20;99.90;;;-0.21;82.01;101984.63;5184238;28;20056;-69
2021/12/22 09:27:49;;;;;;;10.38;5.32;;;0.30;99.90;;;-0.18;82.13;101981.47;5184843;28;20057;-70
2021/12/22 09:30:23;;;;;;;13.07;5.82;;;0.40;99.90;;;-0.09;82.46;101984.91;5184172;28;20060;-70
2021/12/22 09:32:55;;;;;;;11.35;5.13;;;0.40;99.90;;;-0.10;81.99;101984.00;5184185;28;20049;-69
2021/12/22 09:35:27;;;;;;;11.95;6.30;;;0.40;99.90;;;-0.10;81.91;101989.13;5183765;28;20050;-70
2021/12/22 09:37:59;;;;;;;11.90;5.65;;;0.50;99.90;;;-0.03;82.20;101985.50;5184508;28;20048;-69
2021/12/22 09:40:31;;;;;;;12.13;4.80;;;0.50;99.90;;;0.01;81.56;101990.19;5184372;28;20056;-69
2021/12/22 09:43:05;;;;;;;9.75;5.35;;;0.50;99.90;;;-0.06;81.89;101995.47;5184907;28;20053;-69
2021/12/22 09:45:44;;;;;;;11.93;5.50;;;0.50;99.90;;;-0.03;81.68;101983.84;5183819;28;20045;-69
2021/12/22 09:48:27;;;;;;;11.35;4.75;;;0.60;99.90;;;0.03;82.28;101983.53;5183989;28;20042;-69
2021/12/22 09:53:48;;;;;;;11.15;5.45;;;0.70;99.90;;;0.28;81.55;101981.63;5182995;28;20061;-70
2021/12/22 09:56:23;;;;;;;14.38;5.15;;;0.70;99.90;;;0.34;81.80;101983.88;5183909;28;20050;-70
2021/12/22 09:58:56;;;;;;;13.57;5.03;;;0.80;99.90;;;0.39;81.44;101982.63;5184413;28;20483;-70
2021/12/22 10:01:29;;;;;;;11.13;4.45;;;0.80;99.90;;;0.39;80.64;101977.50;5184127;28;20054;-69
2021/12/22 10:04:02;;;;;;;11.20;4.75;;;0.90;99.90;;;0.42;80.56;101967.53;5183453;28;20072;-69
2021/12/22 10:06:34;;;;;;;12.02;5.40;;;0.90;99.90;;;0.50;80.29;101975.19;5184171;28;20053;-69
2021/12/22 10:09:07;;;;;;;12.93;4.93;;;0.90;99.90;;;0.66;80.28;101972.41;5183891;28;20050;-69
2021/12/22 10:11:44;;;;;;;13.10;5.18;;;1.10;99.90;;;0.81;80.35;101960.97;5183976;28;20052;-70
2021/12/22 10:14:23;;;;;;;14.15;5.40;;;1.10;99.90;;;0.90;79.32;101970.25;5183755;28;20054;-70
2021/12/22 10:16:57;;;;;;;13.95;5.30;;;1.30;99.90;;;1.01;79.27;101962.78;5183947;28;20049;-69
2021/12/22 10:19:29;;;;;;;11.80;5.10;;;1.40;99.90;;;1.09;79.27;101963.47;5184063;28;20054;-69
2021/12/22 10:22:04;;;;;;;10.48;4.75;;;1.40;99.90;;;1.09;77.66;101958.34;5171189;28;20049;-69
2021/12/22 10:24:39;;;;;;;11.35;5.25;;;1.50;99.90;;;1.10;77.40;101955.00;5185004;28;20421;-69
2021/12/22 10:27:19;;;;;;;10.10;4.85;;;1.50;99.90;;;1.20;77.14;101944.81;5183646;28;20049;-70
2021/12/22 10:29:50;;;;;;;10.93;4.63;;;1.60;99.90;;;1.39;77.26;101944.81;5184026;28;20483;-69
2021/12/22 10:32:24;;;;;;;11.25;4.93;;;1.70;99.90;;;1.56;76.84;101938.59;5184089;28;20498;-69
2021/12/22 10:34:59;;;;;;;11.18;5.35;;;1.80;99.90;;;1.69;76.03;101941.47;5183443;28;20068;-69
2021/12/22 10:37:37;;;;;;;14.70;6.35;;;1.90;99.90;;;1.71;73.94;101926.19;5183540;28;20088;-69
2021/12/22 10:40:25;;;;;;;16.42;5.43;;;2.00;99.90;;;1.77;73.96;101945.66;5183922;28;20423;-69
2021/12/22 10:42:58;;;;;;;13.27;5.22;;;2.10;99.90;;;1.95;73.74;101945.44;5186223;28;20065;-69
2021/12/22 10:45:34;;;;;;;10.57;4.95;;;2.20;99.90;;;1.95;72.80;101940.28;5186684;28;20061;-69
2021/12/22 10:51:00;;;;;;;14.43;5.05;;;2.30;99.90;;;2.11;72.02;101934.06;5186661;28;20053;-70
2021/12/22 10:53:41;;;;;;;12.63;4.53;;;2.40;99.90;;;2.13;71.49;101936.75;5186707;28;20052;-70
2021/12/22 10:56:24;;;;;;;9.80;4.90;;;2.40;99.90;;;2.23;71.43;101929.06;5186332;28;20054;-69